sensor_id;sensor_type;location;lat;lon;timestamp;P1;durP1;ratioP1;P2;durP2;ratioP2
12350;SDS011;6240;51.538;7.696;2022-08-30T00:01:23;7.55;;;3.80;;
12350;SDS011;6240;51.538;7.696;2022-08-30T00:03:50;5.90;;;2.95;;
12350;SDS011;6240;51.538;7.696;2022-08-30T00:06:19;7.68;;;3.67;;
12350;SDS011;6240;51.538;7.696;2022-08-30T00:08:46;4.78;;;2.92;;
12350;SDS011;6240;51.538;7.696;2022-08-30T00:11:16;4.35;;;3.20;;
12350;SDS011;6240;51.538;7.696;2022-08-30T00:13:45;5.70;;;2.75;;
12350;SDS011;6240;51.538;7.696;2022-08-30T00:16:14;5.07;;;3.10;;
12350;SDS011;6240;51.538;7.696;2022-08-30T00:18:41;5.57;;;2.97;;
12350;SDS011;6240;51.538;7.696;2022-08-30T00:21:09;4.85;;;3.60;;
12350;SDS011;6240;51.538;7.696;2022-08-30T00:23:37;8.55;;;3.90;;
12350;SDS011;6240;51.538;7.696;2022-08-30T00:26:04;7.65;;;3.55;;
12350;SDS011;6240;51.538;7.696;2022-08-30T00:28:33;5.45;;;3.10;;
12350;SDS011;6240;51.538;7.696;2022-08-30T00:31:01;5.65;;;3.63;;
12350;SDS011;6240;51.538;7.696;2022-08-30T00:33:28;4.18;;;3.03;;
12350;SDS011;6240;51.538;7.696;2022-08-30T00:35:56;6.65;;;3.55;;
12350;SDS011;6240;51.538;7.696;2022-08-30T00:38:23;5.60;;;3.30;;
12350;SDS011;6240;51.538;7.696;2022-08-30T00:40:50;6.70;;;4.00;;
12350;SDS011;6240;51.538;7.696;2022-08-30T00:43:19;5.22;;;3.35;;
12350;SDS011;6240;51.538;7.696;2022-08-30T00:45:49;7.85;;;3.65;;
12350;SDS011;6240;51.538;7.696;2022-08-30T00:48:16;4.13;;;3.50;;
12350;SDS011;6240;51.538;7.696;2022-08-30T00:50:44;6.90;;;3.70;;
12350;SDS011;6240;51.538;7.696;2022-08-30T00:53:14;4.50;;;3.08;;
12350;SDS011;6240;51.538;7.696;2022-08-30T00:55:42;8.23;;;3.70;;
12350;SDS011;6240;51.538;7.696;2022-08-30T00:58:10;4.15;;;3.53;;
12350;SDS011;6240;51.538;7.696;2022-08-30T01:00:40;9.77;;;4.13;;
12350;SDS011;6240;51.538;7.696;2022-08-30T01:03:08;7.93;;;3.90;;
12350;SDS011;6240;51.538;7.696;2022-08-30T01:05:36;7.10;;;3.95;;
12350;SDS011;6240;51.538;7.696;2022-08-30T01:08:04;4.55;;;3.33;;
12350;SDS011;6240;51.538;7.696;2022-08-30T01:10:33;5.20;;;3.30;;
12350;SDS011;6240;51.538;7.696;2022-08-30T01:13:00;4.53;;;3.53;;
12350;SDS011;6240;51.538;7.696;2022-08-30T01:15:28;5.65;;;3.60;;
12350;SDS011;6240;51.538;7.696;2022-08-30T01:17:56;5.97;;;3.75;;
12350;SDS011;6240;51.538;7.696;2022-08-30T01:20:26;8.20;;;3.70;;
12350;SDS011;6240;51.538;7.696;2022-08-30T01:23:00;7.15;;;3.03;;
12350;SDS011;6240;51.538;7.696;2022-08-30T01:25:28;7.95;;;3.83;;
12350;SDS011;6240;51.538;7.696;2022-08-30T01:27:57;6.18;;;3.85;;
12350;SDS011;6240;51.538;7.696;2022-08-30T01:30:25;4.15;;;3.08;;
12350;SDS011;6240;51.538;7.696;2022-08-30T01:32:55;6.20;;;3.60;;
12350;SDS011;6240;51.538;7.696;2022-08-30T01:35:23;5.10;;;3.13;;
12350;SDS011;6240;51.538;7.696;2022-08-30T01:37:50;5.13;;;3.55;;
12350;SDS011;6240;51.538;7.696;2022-08-30T01:40:19;9.93;;;3.47;;
12350;SDS011;6240;51.538;7.696;2022-08-30T01:42:46;5.35;;;3.60;;
12350;SDS011;6240;51.538;7.696;2022-08-30T01:45:15;6.43;;;3.45;;
12350;SDS011;6240;51.538;7.696;2022-08-30T01:47:42;4.30;;;3.58;;
12350;SDS011;6240;51.538;7.696;2022-08-30T01:50:10;5.25;;;3.42;;
12350;SDS011;6240;51.538;7.696;2022-08-30T01:52:37;4.38;;;3.25;;
12350;SDS011;6240;51.538;7.696;2022-08-30T01:55:05;6.32;;;4.13;;
12350;SDS011;6240;51.538;7.696;2022-08-30T01:57:34;6.28;;;3.58;;
12350;SDS011;6240;51.538;7.696;2022-08-30T02:00:01;6.18;;;3.80;;
12350;SDS011;6240;51.538;7.696;2022-08-30T02:02:28;5.28;;;4.00;;
12350;SDS011;6240;51.538;7.696;2022-08-30T02:04:56;6.55;;;4.22;;
12350;SDS011;6240;51.538;7.696;2022-08-30T02:07:23;5.90;;;3.92;;
12350;SDS011;6240;51.538;7.696;2022-08-30T02:09:50;4.95;;;3.78;;
12350;SDS011;6240;51.538;7.696;2022-08-30T02:12:17;7.32;;;4.10;;
12350;SDS011;6240;51.538;7.696;2022-08-30T02:14:46;4.75;;;3.95;;
12350;SDS011;6240;51.538;7.696;2022-08-30T02:17:15;6.68;;;3.60;;
12350;SDS011;6240;51.538;7.696;2022-08-30T02:19:43;4.38;;;3.72;;
12350;SDS011;6240;51.538;7.696;2022-08-30T02:22:10;5.93;;;3.70;;
12350;SDS011;6240;51.538;7.696;2022-08-30T02:24:38;7.97;;;3.55;;
12350;SDS011;6240;51.538;7.696;2022-08-30T02:27:06;6.40;;;3.85;;
12350;SDS011;6240;51.538;7.696;2022-08-30T02:29:33;5.88;;;3.45;;
12350;SDS011;6240;51.538;7.696;2022-08-30T02:32:02;5.88;;;4.03;;
12350;SDS011;6240;51.538;7.696;2022-08-30T02:34:30;5.15;;;3.50;;
12350;SDS011;6240;51.538;7.696;2022-08-30T02:36:57;6.78;;;3.80;;
12350;SDS011;6240;51.538;7.696;2022-08-30T02:39:25;4.63;;;3.90;;
12350;SDS011;6240;51.538;7.696;2022-08-30T02:41:52;5.72;;;3.95;;
12350;SDS011;6240;51.538;7.696;2022-08-30T02:44:19;7.70;;;4.22;;
12350;SDS011;6240;51.538;7.696;2022-08-30T02:46:46;5.45;;;3.97;;
12350;SDS011;6240;51.538;7.696;2022-08-30T02:49:15;6.65;;;3.78;;
12350;SDS011;6240;51.538;7.696;2022-08-30T02:51:42;7.03;;;3.90;;
12350;SDS011;6240;51.538;7.696;2022-08-30T02:54:10;4.43;;;3.65;;
12350;SDS011;6240;51.538;7.696;2022-08-30T02:56:43;4.97;;;3.95;;
12350;SDS011;6240;51.538;7.696;2022-08-30T02:59:10;5.15;;;3.83;;
12350;SDS011;6240;51.538;7.696;2022-08-30T03:01:37;7.03;;;4.00;;
12350;SDS011;6240;51.538;7.696;2022-08-30T03:04:04;4.25;;;3.83;;
12350;SDS011;6240;51.538;7.696;2022-08-30T03:06:33;8.52;;;4.78;;
12350;SDS011;6240;51.538;7.696;2022-08-30T03:09:00;6.22;;;4.25;;
12350;SDS011;6240;51.538;7.696;2022-08-30T03:11:28;8.10;;;3.55;;
12350;SDS011;6240;51.538;7.696;2022-08-30T03:13:55;4.72;;;3.85;;
12350;SDS011;6240;51.538;7.696;2022-08-30T03:16:22;4.20;;;3.67;;
12350;SDS011;6240;51.538;7.696;2022-08-30T03:18:49;6.30;;;4.22;;
12350;SDS011;6240;51.538;7.696;2022-08-30T03:21:17;6.22;;;3.90;;
12350;SDS011;6240;51.538;7.696;2022-08-30T03:23:45;7.47;;;4.28;;
12350;SDS011;6240;51.538;7.696;2022-08-30T03:26:12;6.35;;;3.88;;
12350;SDS011;6240;51.538;7.696;2022-08-30T03:28:40;6.80;;;4.28;;
12350;SDS011;6240;51.538;7.696;2022-08-30T03:31:07;6.43;;;4.38;;
12350;SDS011;6240;51.538;7.696;2022-08-30T03:33:35;7.05;;;4.82;;
12350;SDS011;6240;51.538;7.696;2022-08-30T03:36:04;6.88;;;4.25;;
12350;SDS011;6240;51.538;7.696;2022-08-30T03:38:31;5.30;;;4.55;;
12350;SDS011;6240;51.538;7.696;2022-08-30T03:41:00;7.60;;;4.65;;
12350;SDS011;6240;51.538;7.696;2022-08-30T03:43:28;5.03;;;4.47;;
12350;SDS011;6240;51.538;7.696;2022-08-30T03:45:57;5.80;;;4.53;;
12350;SDS011;6240;51.538;7.696;2022-08-30T03:48:25;7.60;;;5.05;;
12350;SDS011;6240;51.538;7.696;2022-08-30T03:50:52;5.55;;;4.53;;
12350;SDS011;6240;51.538;7.696;2022-08-30T03:53:19;7.32;;;4.63;;
12350;SDS011;6240;51.538;7.696;2022-08-30T03:55:47;8.48;;;5.55;;
12350;SDS011;6240;51.538;7.696;2022-08-30T03:58:15;5.90;;;4.40;;
12350;SDS011;6240;51.538;7.696;2022-08-30T04:00:43;6.63;;;5.78;;
12350;SDS011;6240;51.538;7.696;2022-08-30T04:03:10;7.82;;;5.43;;
12350;SDS011;6240;51.538;7.696;2022-08-30T04:05:37;5.63;;;4.75;;
12350;SDS011;6240;51.538;7.696;2022-08-30T04:08:04;7.10;;;5.10;;
12350;SDS011;6240;51.538;7.696;2022-08-30T04:10:32;9.35;;;4.95;;
12350;SDS011;6240;51.538;7.696;2022-08-30T04:12:59;7.05;;;4.82;;
12350;SDS011;6240;51.538;7.696;2022-08-30T04:15:28;8.00;;;5.40;;
12350;SDS011;6240;51.538;7.696;2022-08-30T04:17:55;8.48;;;5.85;;
12350;SDS011;6240;51.538;7.696;2022-08-30T04:20:22;6.65;;;5.05;;
12350;SDS011;6240;51.538;7.696;2022-08-30T04:22:49;5.50;;;4.90;;
12350;SDS011;6240;51.538;7.696;2022-08-30T04:25:17;8.00;;;5.43;;
12350;SDS011;6240;51.538;7.696;2022-08-30T04:27:44;7.97;;;5.45;;
12350;SDS011;6240;51.538;7.696;2022-08-30T04:30:12;9.27;;;5.70;;
12350;SDS011;6240;51.538;7.696;2022-08-30T04:32:42;8.55;;;5.55;;
12350;SDS011;6240;51.538;7.696;2022-08-30T04:35:11;6.28;;;5.18;;
12350;SDS011;6240;51.538;7.696;2022-08-30T04:37:38;6.43;;;5.10;;
12350;SDS011;6240;51.538;7.696;2022-08-30T04:40:06;6.63;;;5.15;;
12350;SDS011;6240;51.538;7.696;2022-08-30T04:42:35;8.65;;;5.80;;
12350;SDS011;6240;51.538;7.696;2022-08-30T04:45:03;8.35;;;6.05;;
12350;SDS011;6240;51.538;7.696;2022-08-30T04:47:31;8.65;;;6.47;;
12350;SDS011;6240;51.538;7.696;2022-08-30T04:50:00;5.82;;;5.22;;
12350;SDS011;6240;51.538;7.696;2022-08-30T04:52:27;9.00;;;5.85;;
12350;SDS011;6240;51.538;7.696;2022-08-30T04:54:55;11.68;;;5.85;;
12350;SDS011;6240;51.538;7.696;2022-08-30T04:57:24;9.68;;;6.60;;
12350;SDS011;6240;51.538;7.696;2022-08-30T04:59:53;8.55;;;6.28;;
12350;SDS011;6240;51.538;7.696;2022-08-30T05:02:21;11.38;;;5.88;;
12350;SDS011;6240;51.538;7.696;2022-08-30T05:04:48;6.68;;;5.97;;
12350;SDS011;6240;51.538;7.696;2022-08-30T05:07:35;7.38;;;5.85;;
12350;SDS011;6240;51.538;7.696;2022-08-30T05:10:02;7.43;;;6.28;;
12350;SDS011;6240;51.538;7.696;2022-08-30T05:12:30;9.40;;;6.18;;
12350;SDS011;6240;51.538;7.696;2022-08-30T05:14:57;6.40;;;5.80;;
12350;SDS011;6240;51.538;7.696;2022-08-30T05:17:24;9.25;;;6.07;;
12350;SDS011;6240;51.538;7.696;2022-08-30T05:19:52;11.32;;;6.43;;
12350;SDS011;6240;51.538;7.696;2022-08-30T05:22:19;9.70;;;5.93;;
12350;SDS011;6240;51.538;7.696;2022-08-30T05:24:48;7.35;;;6.53;;
12350;SDS011;6240;51.538;7.696;2022-08-30T05:27:15;7.28;;;6.30;;
12350;SDS011;6240;51.538;7.696;2022-08-30T05:29:42;7.07;;;5.63;;
12350;SDS011;6240;51.538;7.696;2022-08-30T05:32:09;9.32;;;5.82;;
12350;SDS011;6240;51.538;7.696;2022-08-30T05:34:36;7.60;;;5.78;;
12350;SDS011;6240;51.538;7.696;2022-08-30T05:37:03;7.28;;;5.50;;
12350;SDS011;6240;51.538;7.696;2022-08-30T05:39:31;8.43;;;5.75;;
12350;SDS011;6240;51.538;7.696;2022-08-30T05:42:07;7.18;;;5.70;;
12350;SDS011;6240;51.538;7.696;2022-08-30T05:44:37;7.43;;;5.88;;
12350;SDS011;6240;51.538;7.696;2022-08-30T05:47:05;10.98;;;5.82;;
12350;SDS011;6240;51.538;7.696;2022-08-30T05:49:34;9.27;;;5.93;;
12350;SDS011;6240;51.538;7.696;2022-08-30T05:52:02;11.77;;;6.15;;
12350;SDS011;6240;51.538;7.696;2022-08-30T05:54:30;7.15;;;5.57;;
12350;SDS011;6240;51.538;7.696;2022-08-30T05:56:57;9.30;;;6.25;;
12350;SDS011;6240;51.538;7.696;2022-08-30T05:59:26;9.60;;;6.22;;
12350;SDS011;6240;51.538;7.696;2022-08-30T06:01:55;7.18;;;5.60;;
12350;SDS011;6240;51.538;7.696;2022-08-30T06:04:25;9.57;;;6.55;;
12350;SDS011;6240;51.538;7.696;2022-08-30T06:06:54;9.35;;;6.40;;
12350;SDS011;6240;51.538;7.696;2022-08-30T06:09:23;8.85;;;6.20;;
12350;SDS011;6240;51.538;7.696;2022-08-30T06:11:52;11.00;;;6.43;;
12350;SDS011;6240;51.538;7.696;2022-08-30T06:14:19;8.13;;;6.47;;
12350;SDS011;6240;51.538;7.696;2022-08-30T06:16:49;7.68;;;5.88;;
12350;SDS011;6240;51.538;7.696;2022-08-30T06:19:20;6.05;;;5.45;;
12350;SDS011;6240;51.538;7.696;2022-08-30T06:21:50;9.05;;;5.88;;
12350;SDS011;6240;51.538;7.696;2022-08-30T06:24:19;7.23;;;5.73;;
12350;SDS011;6240;51.538;7.696;2022-08-30T06:26:46;6.20;;;5.60;;
12350;SDS011;6240;51.538;7.696;2022-08-30T06:29:14;8.20;;;5.72;;
12350;SDS011;6240;51.538;7.696;2022-08-30T06:31:44;9.55;;;5.20;;
12350;SDS011;6240;51.538;7.696;2022-08-30T06:34:12;6.15;;;5.65;;
12350;SDS011;6240;51.538;7.696;2022-08-30T06:36:40;5.68;;;4.85;;
12350;SDS011;6240;51.538;7.696;2022-08-30T06:39:07;6.85;;;5.40;;
12350;SDS011;6240;51.538;7.696;2022-08-30T06:41:35;6.20;;;5.40;;
12350;SDS011;6240;51.538;7.696;2022-08-30T06:44:03;5.65;;;4.80;;
12350;SDS011;6240;51.538;7.696;2022-08-30T06:46:32;5.40;;;4.90;;
12350;SDS011;6240;51.538;7.696;2022-08-30T06:48:59;4.82;;;4.40;;
12350;SDS011;6240;51.538;7.696;2022-08-30T06:51:28;6.20;;;4.43;;
12350;SDS011;6240;51.538;7.696;2022-08-30T06:53:56;6.18;;;4.57;;
12350;SDS011;6240;51.538;7.696;2022-08-30T06:56:23;6.18;;;4.40;;
12350;SDS011;6240;51.538;7.696;2022-08-30T06:58:51;8.27;;;4.97;;
12350;SDS011;6240;51.538;7.696;2022-08-30T07:01:19;6.05;;;4.53;;
12350;SDS011;6240;51.538;7.696;2022-08-30T07:03:47;5.30;;;4.50;;
12350;SDS011;6240;51.538;7.696;2022-08-30T07:06:14;6.05;;;5.05;;
12350;SDS011;6240;51.538;7.696;2022-08-30T07:08:44;5.95;;;4.15;;
12350;SDS011;6240;51.538;7.696;2022-08-30T07:11:11;5.32;;;4.35;;
12350;SDS011;6240;51.538;7.696;2022-08-30T07:13:40;5.43;;;4.10;;
12350;SDS011;6240;51.538;7.696;2022-08-30T07:16:10;5.32;;;4.47;;
12350;SDS011;6240;51.538;7.696;2022-08-30T07:18:38;4.95;;;4.43;;
12350;SDS011;6240;51.538;7.696;2022-08-30T07:21:20;6.47;;;3.92;;
12350;SDS011;6240;51.538;7.696;2022-08-30T07:23:49;3.72;;;3.42;;
12350;SDS011;6240;51.538;7.696;2022-08-30T07:26:18;5.45;;;4.30;;
12350;SDS011;6240;51.538;7.696;2022-08-30T07:28:46;4.90;;;3.75;;
12350;SDS011;6240;51.538;7.696;2022-08-30T07:31:14;4.93;;;4.15;;
12350;SDS011;6240;51.538;7.696;2022-08-30T07:33:43;5.32;;;3.90;;
12350;SDS011;6240;51.538;7.696;2022-08-30T07:36:13;6.68;;;3.80;;
12350;SDS011;6240;51.538;7.696;2022-08-30T07:38:42;7.53;;;4.00;;
12350;SDS011;6240;51.538;7.696;2022-08-30T07:41:14;4.50;;;3.70;;
12350;SDS011;6240;51.538;7.696;2022-08-30T07:43:41;3.85;;;3.47;;
12350;SDS011;6240;51.538;7.696;2022-08-30T07:46:08;3.85;;;3.03;;
12350;SDS011;6240;51.538;7.696;2022-08-30T07:48:35;4.10;;;3.40;;
12350;SDS011;6240;51.538;7.696;2022-08-30T07:51:03;4.50;;;3.38;;
12350;SDS011;6240;51.538;7.696;2022-08-30T07:53:30;4.60;;;3.55;;
12350;SDS011;6240;51.538;7.696;2022-08-30T07:55:57;4.18;;;3.25;;
12350;SDS011;6240;51.538;7.696;2022-08-30T07:58:27;5.88;;;3.75;;
12350;SDS011;6240;51.538;7.696;2022-08-30T08:00:57;4.90;;;3.40;;
12350;SDS011;6240;51.538;7.696;2022-08-30T08:03:27;7.45;;;3.30;;
12350;SDS011;6240;51.538;7.696;2022-08-30T08:05:55;3.65;;;3.15;;
12350;SDS011;6240;51.538;7.696;2022-08-30T08:08:22;5.40;;;2.85;;
12350;SDS011;6240;51.538;7.696;2022-08-30T08:10:50;4.55;;;2.53;;
12350;SDS011;6240;51.538;7.696;2022-08-30T08:13:18;3.30;;;2.70;;
12350;SDS011;6240;51.538;7.696;2022-08-30T08:15:50;4.40;;;2.50;;
12350;SDS011;6240;51.538;7.696;2022-08-30T08:18:21;5.35;;;2.65;;
12350;SDS011;6240;51.538;7.696;2022-08-30T08:20:51;4.82;;;2.85;;
12350;SDS011;6240;51.538;7.696;2022-08-30T08:23:20;3.65;;;2.53;;
12350;SDS011;6240;51.538;7.696;2022-08-30T08:25:47;3.28;;;2.95;;
12350;SDS011;6240;51.538;7.696;2022-08-30T08:28:14;3.20;;;2.60;;
12350;SDS011;6240;51.538;7.696;2022-08-30T08:30:42;3.75;;;2.85;;
12350;SDS011;6240;51.538;7.696;2022-08-30T08:33:11;3.85;;;2.58;;
12350;SDS011;6240;51.538;7.696;2022-08-30T08:35:38;4.82;;;2.65;;
12350;SDS011;6240;51.538;7.696;2022-08-30T08:38:05;3.28;;;2.50;;
12350;SDS011;6240;51.538;7.696;2022-08-30T08:40:34;5.35;;;2.60;;
12350;SDS011;6240;51.538;7.696;2022-08-30T08:43:04;4.07;;;2.42;;
12350;SDS011;6240;51.538;7.696;2022-08-30T08:45:37;3.85;;;2.70;;
12350;SDS011;6240;51.538;7.696;2022-08-30T08:48:09;3.03;;;2.55;;
12350;SDS011;6240;51.538;7.696;2022-08-30T08:50:40;4.50;;;2.95;;
12350;SDS011;6240;51.538;7.696;2022-08-30T08:53:32;5.40;;;2.50;;
12350;SDS011;6240;51.538;7.696;2022-08-30T08:56:08;4.75;;;2.70;;
12350;SDS011;6240;51.538;7.696;2022-08-30T08:58:41;4.45;;;2.92;;
12350;SDS011;6240;51.538;7.696;2022-08-30T09:01:11;2.38;;;2.17;;
12350;SDS011;6240;51.538;7.696;2022-08-30T09:03:39;4.32;;;2.60;;
12350;SDS011;6240;51.538;7.696;2022-08-30T09:06:11;6.05;;;2.78;;
12350;SDS011;6240;51.538;7.696;2022-08-30T09:08:41;3.08;;;2.30;;
12350;SDS011;6240;51.538;7.696;2022-08-30T09:11:08;2.80;;;2.50;;
12350;SDS011;6240;51.538;7.696;2022-08-30T09:13:41;5.13;;;2.42;;
12350;SDS011;6240;51.538;7.696;2022-08-30T09:16:08;3.38;;;2.40;;
12350;SDS011;6240;51.538;7.696;2022-08-30T09:18:41;3.58;;;2.28;;
12350;SDS011;6240;51.538;7.696;2022-08-30T09:21:11;4.15;;;2.30;;
12350;SDS011;6240;51.538;7.696;2022-08-30T09:23:45;4.05;;;2.60;;
12350;SDS011;6240;51.538;7.696;2022-08-30T09:26:14;2.90;;;2.28;;
12350;SDS011;6240;51.538;7.696;2022-08-30T09:28:56;4.13;;;2.00;;
12350;SDS011;6240;51.538;7.696;2022-08-30T09:31:26;2.28;;;2.05;;
12350;SDS011;6240;51.538;7.696;2022-08-30T09:33:55;5.53;;;1.85;;
12350;SDS011;6240;51.538;7.696;2022-08-30T09:36:25;3.28;;;1.95;;
12350;SDS011;6240;51.538;7.696;2022-08-30T09:38:57;3.60;;;2.42;;
12350;SDS011;6240;51.538;7.696;2022-08-30T09:41:27;5.65;;;2.53;;
12350;SDS011;6240;51.538;7.696;2022-08-30T09:44:05;3.92;;;2.28;;
12350;SDS011;6240;51.538;7.696;2022-08-30T09:46:33;3.05;;;2.20;;
12350;SDS011;6240;51.538;7.696;2022-08-30T09:49:00;3.55;;;2.30;;
12350;SDS011;6240;51.538;7.696;2022-08-30T09:51:36;3.03;;;2.22;;
12350;SDS011;6240;51.538;7.696;2022-08-30T09:54:08;2.47;;;2.05;;
12350;SDS011;6240;51.538;7.696;2022-08-30T09:56:38;8.75;;;2.55;;
12350;SDS011;6240;51.538;7.696;2022-08-30T09:59:08;4.72;;;2.70;;
12350;SDS011;6240;51.538;7.696;2022-08-30T10:01:38;6.07;;;2.17;;
12350;SDS011;6240;51.538;7.696;2022-08-30T10:04:09;4.43;;;2.47;;
12350;SDS011;6240;51.538;7.696;2022-08-30T10:06:40;2.22;;;2.03;;
12350;SDS011;6240;51.538;7.696;2022-08-30T10:09:13;5.45;;;2.28;;
12350;SDS011;6240;51.538;7.696;2022-08-30T10:11:45;3.67;;;2.28;;
12350;SDS011;6240;51.538;7.696;2022-08-30T10:14:23;3.17;;;2.30;;
12350;SDS011;6240;51.538;7.696;2022-08-30T10:16:57;2.47;;;2.20;;
12350;SDS011;6240;51.538;7.696;2022-08-30T10:19:34;4.45;;;2.50;;
12350;SDS011;6240;51.538;7.696;2022-08-30T10:22:10;3.17;;;2.55;;
12350;SDS011;6240;51.538;7.696;2022-08-30T10:24:39;5.53;;;2.70;;
12350;SDS011;6240;51.538;7.696;2022-08-30T10:27:09;3.05;;;2.20;;
12350;SDS011;6240;51.538;7.696;2022-08-30T10:29:42;2.90;;;1.90;;
12350;SDS011;6240;51.538;7.696;2022-08-30T10:32:11;6.13;;;2.70;;
12350;SDS011;6240;51.538;7.696;2022-08-30T10:34:44;2.85;;;2.58;;
12350;SDS011;6240;51.538;7.696;2022-08-30T10:37:13;3.88;;;2.30;;
12350;SDS011;6240;51.538;7.696;2022-08-30T10:39:44;5.88;;;2.35;;
12350;SDS011;6240;51.538;7.696;2022-08-30T10:42:15;6.70;;;2.90;;
12350;SDS011;6240;51.538;7.696;2022-08-30T10:44:47;3.42;;;2.65;;
12350;SDS011;6240;51.538;7.696;2022-08-30T10:47:18;4.03;;;2.17;;
12350;SDS011;6240;51.538;7.696;2022-08-30T10:49:47;3.05;;;2.40;;
12350;SDS011;6240;51.538;7.696;2022-08-30T10:52:21;3.20;;;2.25;;
12350;SDS011;6240;51.538;7.696;2022-08-30T10:54:51;3.05;;;1.90;;
12350;SDS011;6240;51.538;7.696;2022-08-30T10:57:19;3.50;;;2.25;;
12350;SDS011;6240;51.538;7.696;2022-08-30T10:59:47;2.88;;;2.28;;
12350;SDS011;6240;51.538;7.696;2022-08-30T11:02:31;3.30;;;2.53;;
12350;SDS011;6240;51.538;7.696;2022-08-30T11:05:06;3.13;;;2.20;;
12350;SDS011;6240;51.538;7.696;2022-08-30T11:07:42;3.70;;;2.55;;
12350;SDS011;6240;51.538;7.696;2022-08-30T11:10:18;3.15;;;2.25;;
12350;SDS011;6240;51.538;7.696;2022-08-30T11:12:52;6.68;;;2.10;;
12350;SDS011;6240;51.538;7.696;2022-08-30T11:15:22;3.42;;;2.67;;
12350;SDS011;6240;51.538;7.696;2022-08-30T11:17:54;5.07;;;2.85;;
12350;SDS011;6240;51.538;7.696;2022-08-30T11:20:31;4.25;;;2.42;;
12350;SDS011;6240;51.538;7.696;2022-08-30T11:23:11;6.55;;;2.90;;
12350;SDS011;6240;51.538;7.696;2022-08-30T11:25:48;4.70;;;2.75;;
12350;SDS011;6240;51.538;7.696;2022-08-30T11:31:07;4.68;;;2.50;;
12350;SDS011;6240;51.538;7.696;2022-08-30T11:33:42;3.75;;;2.30;;
12350;SDS011;6240;51.538;7.696;2022-08-30T11:36:10;3.15;;;2.47;;
12350;SDS011;6240;51.538;7.696;2022-08-30T11:41:30;6.65;;;2.60;;
12350;SDS011;6240;51.538;7.696;2022-08-30T11:46:41;3.55;;;2.25;;
12350;SDS011;6240;51.538;7.696;2022-08-30T11:51:59;3.75;;;2.30;;
12350;SDS011;6240;51.538;7.696;2022-08-30T11:54:33;3.85;;;2.38;;
12350;SDS011;6240;51.538;7.696;2022-08-30T11:57:08;2.67;;;2.20;;
12350;SDS011;6240;51.538;7.696;2022-08-30T11:59:42;4.20;;;2.30;;
12350;SDS011;6240;51.538;7.696;2022-08-30T12:04:54;3.65;;;1.95;;
12350;SDS011;6240;51.538;7.696;2022-08-30T12:10:05;3.55;;;1.98;;
12350;SDS011;6240;51.538;7.696;2022-08-30T12:12:44;3.15;;;2.08;;
12350;SDS011;6240;51.538;7.696;2022-08-30T12:15:23;2.40;;;2.10;;
12350;SDS011;6240;51.538;7.696;2022-08-30T12:17:53;3.15;;;2.20;;
12350;SDS011;6240;51.538;7.696;2022-08-30T12:20:41;3.50;;;2.25;;
12350;SDS011;6240;51.538;7.696;2022-08-30T12:23:13;4.10;;;2.13;;
12350;SDS011;6240;51.538;7.696;2022-08-30T12:25:42;3.65;;;2.10;;
12350;SDS011;6240;51.538;7.696;2022-08-30T12:28:13;3.40;;;2.20;;
12350;SDS011;6240;51.538;7.696;2022-08-30T12:30:40;4.03;;;2.17;;
12350;SDS011;6240;51.538;7.696;2022-08-30T12:33:08;3.85;;;2.10;;
12350;SDS011;6240;51.538;7.696;2022-08-30T12:35:38;3.35;;;2.00;;
12350;SDS011;6240;51.538;7.696;2022-08-30T12:38:10;5.55;;;2.40;;
12350;SDS011;6240;51.538;7.696;2022-08-30T12:40:45;3.65;;;2.05;;
12350;SDS011;6240;51.538;7.696;2022-08-30T12:43:20;2.50;;;1.90;;
12350;SDS011;6240;51.538;7.696;2022-08-30T12:45:48;4.60;;;2.40;;
12350;SDS011;6240;51.538;7.696;2022-08-30T12:48:16;2.88;;;1.83;;
12350;SDS011;6240;51.538;7.696;2022-08-30T12:50:46;3.45;;;2.17;;
12350;SDS011;6240;51.538;7.696;2022-08-30T12:53:20;3.40;;;1.80;;
12350;SDS011;6240;51.538;7.696;2022-08-30T12:55:49;3.58;;;1.80;;
12350;SDS011;6240;51.538;7.696;2022-08-30T12:58:31;2.40;;;2.10;;
12350;SDS011;6240;51.538;7.696;2022-08-30T13:01:10;2.50;;;2.13;;
12350;SDS011;6240;51.538;7.696;2022-08-30T13:03:38;2.83;;;1.70;;
12350;SDS011;6240;51.538;7.696;2022-08-30T13:06:06;2.45;;;1.98;;
12350;SDS011;6240;51.538;7.696;2022-08-30T13:08:35;5.75;;;2.30;;
12350;SDS011;6240;51.538;7.696;2022-08-30T13:11:08;4.53;;;2.00;;
12350;SDS011;6240;51.538;7.696;2022-08-30T13:13:40;4.20;;;2.00;;
12350;SDS011;6240;51.538;7.696;2022-08-30T13:16:12;4.65;;;2.20;;
12350;SDS011;6240;51.538;7.696;2022-08-30T13:18:47;3.28;;;2.05;;
12350;SDS011;6240;51.538;7.696;2022-08-30T13:21:21;3.38;;;2.13;;
12350;SDS011;6240;51.538;7.696;2022-08-30T13:23:49;4.88;;;1.88;;
12350;SDS011;6240;51.538;7.696;2022-08-30T13:26:23;4.90;;;2.55;;
12350;SDS011;6240;51.538;7.696;2022-08-30T13:28:52;4.40;;;2.40;;
12350;SDS011;6240;51.538;7.696;2022-08-30T13:31:19;3.17;;;1.70;;
12350;SDS011;6240;51.538;7.696;2022-08-30T13:33:47;2.97;;;2.13;;
12350;SDS011;6240;51.538;7.696;2022-08-30T13:36:17;4.53;;;2.13;;
12350;SDS011;6240;51.538;7.696;2022-08-30T13:38:46;4.80;;;2.17;;
12350;SDS011;6240;51.538;7.696;2022-08-30T13:41:17;5.10;;;2.30;;
12350;SDS011;6240;51.538;7.696;2022-08-30T13:43:46;5.20;;;2.33;;
12350;SDS011;6240;51.538;7.696;2022-08-30T13:46:21;3.35;;;2.03;;
12350;SDS011;6240;51.538;7.696;2022-08-30T13:48:54;3.10;;;2.03;;
12350;SDS011;6240;51.538;7.696;2022-08-30T13:51:25;3.80;;;2.00;;
12350;SDS011;6240;51.538;7.696;2022-08-30T13:53:56;1.77;;;1.67;;
12350;SDS011;6240;51.538;7.696;2022-08-30T13:56:24;3.28;;;1.55;;
12350;SDS011;6240;51.538;7.696;2022-08-30T13:58:55;2.80;;;2.03;;
12350;SDS011;6240;51.538;7.696;2022-08-30T14:01:24;3.65;;;1.98;;
12350;SDS011;6240;51.538;7.696;2022-08-30T14:03:51;5.28;;;2.28;;
12350;SDS011;6240;51.538;7.696;2022-08-30T14:06:18;3.03;;;2.00;;
12350;SDS011;6240;51.538;7.696;2022-08-30T14:08:46;3.67;;;1.98;;
12350;SDS011;6240;51.538;7.696;2022-08-30T14:11:14;1.95;;;1.77;;
12350;SDS011;6240;51.538;7.696;2022-08-30T14:13:45;2.80;;;2.08;;
12350;SDS011;6240;51.538;7.696;2022-08-30T14:16:15;2.08;;;1.92;;
12350;SDS011;6240;51.538;7.696;2022-08-30T14:18:44;4.65;;;1.92;;
12350;SDS011;6240;51.538;7.696;2022-08-30T14:21:13;3.53;;;2.00;;
12350;SDS011;6240;51.538;7.696;2022-08-30T14:23:45;4.88;;;2.08;;
12350;SDS011;6240;51.538;7.696;2022-08-30T14:26:14;3.05;;;1.92;;
12350;SDS011;6240;51.538;7.696;2022-08-30T14:28:43;3.78;;;2.00;;
12350;SDS011;6240;51.538;7.696;2022-08-30T14:31:10;2.70;;;2.13;;
12350;SDS011;6240;51.538;7.696;2022-08-30T14:33:38;3.65;;;1.92;;
12350;SDS011;6240;51.538;7.696;2022-08-30T14:36:07;2.53;;;2.28;;
12350;SDS011;6240;51.538;7.696;2022-08-30T14:38:36;4.53;;;2.28;;
12350;SDS011;6240;51.538;7.696;2022-08-30T14:41:03;3.30;;;1.88;;
12350;SDS011;6240;51.538;7.696;2022-08-30T14:43:31;2.90;;;2.10;;
12350;SDS011;6240;51.538;7.696;2022-08-30T14:45:58;4.40;;;1.95;;
12350;SDS011;6240;51.538;7.696;2022-08-30T14:48:25;2.40;;;1.80;;
12350;SDS011;6240;51.538;7.696;2022-08-30T14:50:53;2.63;;;1.80;;
12350;SDS011;6240;51.538;7.696;2022-08-30T14:53:22;3.28;;;2.00;;
12350;SDS011;6240;51.538;7.696;2022-08-30T14:55:50;2.88;;;1.83;;
12350;SDS011;6240;51.538;7.696;2022-08-30T14:58:17;2.65;;;2.10;;
12350;SDS011;6240;51.538;7.696;2022-08-30T15:00:48;3.35;;;2.00;;
12350;SDS011;6240;51.538;7.696;2022-08-30T15:03:15;2.38;;;1.80;;
12350;SDS011;6240;51.538;7.696;2022-08-30T15:05:46;2.10;;;1.70;;
12350;SDS011;6240;51.538;7.696;2022-08-30T15:08:15;4.63;;;2.00;;
12350;SDS011;6240;51.538;7.696;2022-08-30T15:10:48;2.15;;;1.90;;
12350;SDS011;6240;51.538;7.696;2022-08-30T15:13:21;2.60;;;2.00;;
12350;SDS011;6240;51.538;7.696;2022-08-30T15:15:50;2.08;;;1.88;;
12350;SDS011;6240;51.538;7.696;2022-08-30T15:18:19;3.25;;;1.75;;
12350;SDS011;6240;51.538;7.696;2022-08-30T15:20:49;3.40;;;1.70;;
12350;SDS011;6240;51.538;7.696;2022-08-30T15:23:17;2.03;;;1.90;;
12350;SDS011;6240;51.538;7.696;2022-08-30T15:25:46;5.43;;;1.85;;
12350;SDS011;6240;51.538;7.696;2022-08-30T15:28:14;3.65;;;1.98;;
12350;SDS011;6240;51.538;7.696;2022-08-30T15:30:44;2.80;;;1.77;;